Hauptseite
METAR-TAF:

METAR-TAF

Flughäfen :

Flughafen Straßburg

Straßburg, Frankreich

Breite: 48-33N, Länge: 007-38E, Höhe: 153 m

Beobachtung

Neuester Wetterbericht von vor 27 Minuten, um 21:00 UTC
Wind 4 kt aus Nord/Nordwest
Temperatur 9°C
Luftfeuchtigkeit 57%
Luftdruck 1020 hPa
Sichtweite 10 km oder mehr
keine Wolken unter 1500 m und keine Kumulonimbus oder Gewitterwolken

METAR: LFST 032100Z AUTO 34004KT CAVOK 09/01 Q1020 NOSIG

Zeit: 23:27 (21:27 UTC)

Prognose

Neuester Wetterbericht von vor 4 Stunden und 27 Minuten, um 17:00 UTC
Gültige Prognose vom 03 um 18 UTC bis 04 um 18 UTC
Wind 4 kt aus Nordwest
Sichtweite 10 km oder mehr
keine Wolken unter 1500 m und keine Kumulonimbus oder Gewitterwolken

TAF: LFST 031700Z 0318/0418 32004KT CAVOK

Wetterbeobachtungen und Prognosen von mehr als 4000 Flughäfen (METAR und TAF Bericht).

Die verfügbaren Stationen werden durch gelbe und rote Markierungen auf der Karte dargestellt.

Führen Sie die Maus auf sie, um den Namen der Station zu sehen.

Darauf klicken, um die Beobachtung von Wetterbeobachtungen und Prognosen zu sehen.

Um die Karte zu ändern : klicken Sie auf den grünen Tasten mit einem schwarzen Kreuz Zum Vergrößern, auf den grünen Button mit einem Gedankenstrich zu verkleinern, oder auf die grünen Pfeile für benachbarte Karten.


METAR-TAF: